sensor_id;sensor_type;location;lat;lon;timestamp;temperature;humidity
16732;DHT22;8484;50.904;9.192;2022-09-04T00:00:21;14.00;99.90
16732;DHT22;8484;50.904;9.192;2022-09-04T00:03:13;14.00;99.90
16732;DHT22;8484;50.904;9.192;2022-09-04T00:05:47;13.90;99.90
16732;DHT22;8484;50.904;9.192;2022-09-04T00:08:29;13.90;99.90
16732;DHT22;8484;50.904;9.192;2022-09-04T00:11:03;14.00;99.90
16732;DHT22;8484;50.904;9.192;2022-09-04T00:13:36;13.90;99.90
16732;DHT22;8484;50.904;9.192;2022-09-04T00:16:12;14.20;99.90
16732;DHT22;8484;50.904;9.192;2022-09-04T00:18:47;13.90;99.90
16732;DHT22;8484;50.904;9.192;2022-09-04T00:21:19;13.90;99.90
16732;DHT22;8484;50.904;9.192;2022-09-04T00:23:50;13.80;99.90
16732;DHT22;8484;50.904;9.192;2022-09-04T00:26:35;13.70;99.90
16732;DHT22;8484;50.904;9.192;2022-09-04T00:29:11;13.70;99.90
16732;DHT22;8484;50.904;9.192;2022-09-04T00:31:45;13.80;99.90
16732;DHT22;8484;50.904;9.192;2022-09-04T00:34:24;14.00;99.90
16732;DHT22;8484;50.904;9.192;2022-09-04T00:36:58;13.70;99.90
16732;DHT22;8484;50.904;9.192;2022-09-04T00:39:35;13.80;99.90
16732;DHT22;8484;50.904;9.192;2022-09-04T00:42:12;13.70;99.90
16732;DHT22;8484;50.904;9.192;2022-09-04T00:44:57;13.60;99.90
16732;DHT22;8484;50.904;9.192;2022-09-04T00:48:02;13.90;99.90
16732;DHT22;8484;50.904;9.192;2022-09-04T00:50:38;13.60;99.90
16732;DHT22;8484;50.904;9.192;2022-09-04T00:53:33;13.60;99.90
16732;DHT22;8484;50.904;9.192;2022-09-04T00:56:24;13.70;99.90
16732;DHT22;8484;50.904;9.192;2022-09-04T00:59:05;13.70;99.90
16732;DHT22;8484;50.904;9.192;2022-09-04T01:01:38;13.70;99.90
16732;DHT22;8484;50.904;9.192;2022-09-04T01:04:20;13.80;99.90
16732;DHT22;8484;50.904;9.192;2022-09-04T01:06:58;13.70;99.90
16732;DHT22;8484;50.904;9.192;2022-09-04T01:09:45;13.50;99.90
16732;DHT22;8484;50.904;9.192;2022-09-04T01:12:28;13.50;99.90
16732;DHT22;8484;50.904;9.192;2022-09-04T01:15:05;13.40;99.90
16732;DHT22;8484;50.904;9.192;2022-09-04T01:17:46;13.40;99.90
16732;DHT22;8484;50.904;9.192;2022-09-04T01:20:23;13.40;99.90
16732;DHT22;8484;50.904;9.192;2022-09-04T01:23:11;13.50;99.90
16732;DHT22;8484;50.904;9.192;2022-09-04T01:25:52;13.50;99.90
16732;DHT22;8484;50.904;9.192;2022-09-04T01:28:27;13.40;99.90
16732;DHT22;8484;50.904;9.192;2022-09-04T01:31:00;13.30;99.90
16732;DHT22;8484;50.904;9.192;2022-09-04T01:33:32;13.40;99.90
16732;DHT22;8484;50.904;9.192;2022-09-04T01:36:08;13.50;99.90
16732;DHT22;8484;50.904;9.192;2022-09-04T01:38:43;13.50;99.90
16732;DHT22;8484;50.904;9.192;2022-09-04T01:41:19;13.50;99.90
16732;DHT22;8484;50.904;9.192;2022-09-04T01:43:48;13.40;99.90
16732;DHT22;8484;50.904;9.192;2022-09-04T01:46:36;13.20;99.90
16732;DHT22;8484;50.904;9.192;2022-09-04T01:49:09;13.10;99.90
16732;DHT22;8484;50.904;9.192;2022-09-04T01:51:41;13.40;99.90
16732;DHT22;8484;50.904;9.192;2022-09-04T01:54:19;13.50;99.90
16732;DHT22;8484;50.904;9.192;2022-09-04T01:56:59;13.30;99.90
16732;DHT22;8484;50.904;9.192;2022-09-04T01:59:39;13.40;99.90
16732;DHT22;8484;50.904;9.192;2022-09-04T02:02:13;13.10;99.90
16732;DHT22;8484;50.904;9.192;2022-09-04T02:04:46;13.10;99.90
16732;DHT22;8484;50.904;9.192;2022-09-04T02:07:21;13.10;99.90
16732;DHT22;8484;50.904;9.192;2022-09-04T02:09:59;12.90;99.90
16732;DHT22;8484;50.904;9.192;2022-09-04T02:12:35;12.90;99.90
16732;DHT22;8484;50.904;9.192;2022-09-04T02:15:08;13.20;99.90
16732;DHT22;8484;50.904;9.192;2022-09-04T02:17:41;12.80;99.90
16732;DHT22;8484;50.904;9.192;2022-09-04T02:20:19;12.80;99.90
16732;DHT22;8484;50.904;9.192;2022-09-04T02:22:54;12.90;99.90
16732;DHT22;8484;50.904;9.192;2022-09-04T02:25:27;13.00;99.90
16732;DHT22;8484;50.904;9.192;2022-09-04T02:28:06;13.00;99.90
16732;DHT22;8484;50.904;9.192;2022-09-04T02:30:42;12.90;99.90
16732;DHT22;8484;50.904;9.192;2022-09-04T02:33:16;13.00;99.90
16732;DHT22;8484;50.904;9.192;2022-09-04T02:35:50;13.00;99.90
16732;DHT22;8484;50.904;9.192;2022-09-04T02:38:31;13.00;99.90
16732;DHT22;8484;50.904;9.192;2022-09-04T02:41:05;12.70;99.90
16732;DHT22;8484;50.904;9.192;2022-09-04T02:43:57;12.60;99.90
16732;DHT22;8484;50.904;9.192;2022-09-04T02:46:30;12.10;99.90
16732;DHT22;8484;50.904;9.192;2022-09-04T02:49:07;12.20;99.90
16732;DHT22;8484;50.904;9.192;2022-09-04T02:51:51;12.50;99.90
16732;DHT22;8484;50.904;9.192;2022-09-04T02:54:31;12.40;99.90
16732;DHT22;8484;50.904;9.192;2022-09-04T02:57:11;12.80;99.90
16732;DHT22;8484;50.904;9.192;2022-09-04T02:59:50;12.50;99.90
16732;DHT22;8484;50.904;9.192;2022-09-04T03:02:26;12.40;99.90
16732;DHT22;8484;50.904;9.192;2022-09-04T03:04:58;12.40;99.90
16732;DHT22;8484;50.904;9.192;2022-09-04T03:07:31;12.40;99.90
16732;DHT22;8484;50.904;9.192;2022-09-04T03:10:06;12.60;99.90
16732;DHT22;8484;50.904;9.192;2022-09-04T03:12:39;12.60;99.90
16732;DHT22;8484;50.904;9.192;2022-09-04T03:15:15;12.40;99.90
16732;DHT22;8484;50.904;9.192;2022-09-04T03:17:49;12.40;99.90
16732;DHT22;8484;50.904;9.192;2022-09-04T03:20:21;12.50;99.90
16732;DHT22;8484;50.904;9.192;2022-09-04T03:22:53;12.40;99.90
16732;DHT22;8484;50.904;9.192;2022-09-04T03:25:35;12.40;99.90
16732;DHT22;8484;50.904;9.192;2022-09-04T03:28:08;12.40;99.90
16732;DHT22;8484;50.904;9.192;2022-09-04T03:30:40;12.30;99.90
16732;DHT22;8484;50.904;9.192;2022-09-04T03:33:13;12.40;99.90
16732;DHT22;8484;50.904;9.192;2022-09-04T03:35:48;12.50;99.90
16732;DHT22;8484;50.904;9.192;2022-09-04T03:38:24;12.50;99.90
16732;DHT22;8484;50.904;9.192;2022-09-04T03:40:57;12.30;99.90
16732;DHT22;8484;50.904;9.192;2022-09-04T03:43:42;12.20;99.90
16732;DHT22;8484;50.904;9.192;2022-09-04T03:46:25;12.00;99.90
16732;DHT22;8484;50.904;9.192;2022-09-04T03:49:07;12.00;99.90
16732;DHT22;8484;50.904;9.192;2022-09-04T03:51:44;11.90;99.90
16732;DHT22;8484;50.904;9.192;2022-09-04T03:54:35;11.80;99.90
16732;DHT22;8484;50.904;9.192;2022-09-04T03:57:22;11.60;99.90
16732;DHT22;8484;50.904;9.192;2022-09-04T04:00:03;12.00;99.90
16732;DHT22;8484;50.904;9.192;2022-09-04T04:02:43;11.90;99.90
16732;DHT22;8484;50.904;9.192;2022-09-04T04:05:24;11.80;99.90
16732;DHT22;8484;50.904;9.192;2022-09-04T04:08:09;12.00;99.90
16732;DHT22;8484;50.904;9.192;2022-09-04T04:10:47;11.80;99.90
16732;DHT22;8484;50.904;9.192;2022-09-04T04:13:40;11.90;99.90
16732;DHT22;8484;50.904;9.192;2022-09-04T04:16:27;12.10;99.90
16732;DHT22;8484;50.904;9.192;2022-09-04T04:19:09;12.00;99.90
16732;DHT22;8484;50.904;9.192;2022-09-04T04:21:50;12.00;99.90
16732;DHT22;8484;50.904;9.192;2022-09-04T04:24:34;12.30;99.90
16732;DHT22;8484;50.904;9.192;2022-09-04T04:27:17;12.20;99.90
16732;DHT22;8484;50.904;9.192;2022-09-04T04:30:04;12.40;99.90
16732;DHT22;8484;50.904;9.192;2022-09-04T04:35:29;12.40;99.90
16732;DHT22;8484;50.904;9.192;2022-09-04T04:38:25;12.60;99.90
16732;DHT22;8484;50.904;9.192;2022-09-04T04:41:09;12.40;99.90
16732;DHT22;8484;50.904;9.192;2022-09-04T04:46:42;12.60;99.90
16732;DHT22;8484;50.904;9.192;2022-09-04T04:49:36;12.70;99.90
16732;DHT22;8484;50.904;9.192;2022-09-04T04:52:27;12.90;99.90
16732;DHT22;8484;50.904;9.192;2022-09-04T04:55:10;12.70;99.90
16732;DHT22;8484;50.904;9.192;2022-09-04T04:57:47;12.60;99.90
16732;DHT22;8484;50.904;9.192;2022-09-04T05:00:22;12.60;99.90
16732;DHT22;8484;50.904;9.192;2022-09-04T05:03:00;12.50;99.90
16732;DHT22;8484;50.904;9.192;2022-09-04T05:05:47;12.40;99.90
16732;DHT22;8484;50.904;9.192;2022-09-04T05:08:28;12.30;99.90
16732;DHT22;8484;50.904;9.192;2022-09-04T05:11:01;12.50;99.90
16732;DHT22;8484;50.904;9.192;2022-09-04T05:13:36;12.10;99.90
16732;DHT22;8484;50.904;9.192;2022-09-04T05:16:16;12.10;99.90
16732;DHT22;8484;50.904;9.192;2022-09-04T05:18:51;12.40;99.90
16732;DHT22;8484;50.904;9.192;2022-09-04T05:21:28;12.40;99.90
16732;DHT22;8484;50.904;9.192;2022-09-04T05:24:03;12.60;99.90
16732;DHT22;8484;50.904;9.192;2022-09-04T05:26:39;12.20;99.90
16732;DHT22;8484;50.904;9.192;2022-09-04T05:29:14;12.30;99.90
16732;DHT22;8484;50.904;9.192;2022-09-04T05:31:46;12.30;99.90
16732;DHT22;8484;50.904;9.192;2022-09-04T05:34:25;12.30;99.90
16732;DHT22;8484;50.904;9.192;2022-09-04T05:37:05;12.20;99.90
16732;DHT22;8484;50.904;9.192;2022-09-04T05:39:43;12.40;99.90
16732;DHT22;8484;50.904;9.192;2022-09-04T05:42:40;12.60;99.90
16732;DHT22;8484;50.904;9.192;2022-09-04T05:45:15;12.50;99.90
16732;DHT22;8484;50.904;9.192;2022-09-04T05:47:55;12.50;99.90
16732;DHT22;8484;50.904;9.192;2022-09-04T05:50:35;12.60;99.90
16732;DHT22;8484;50.904;9.192;2022-09-04T05:56:12;13.10;99.90
16732;DHT22;8484;50.904;9.192;2022-09-04T05:58:53;13.50;99.90
16732;DHT22;8484;50.904;9.192;2022-09-04T06:01:38;13.70;99.90
16732;DHT22;8484;50.904;9.192;2022-09-04T06:04:31;14.30;99.90
16732;DHT22;8484;50.904;9.192;2022-09-04T06:07:07;14.30;99.90
16732;DHT22;8484;50.904;9.192;2022-09-04T06:09:45;14.30;99.90
16732;DHT22;8484;50.904;9.192;2022-09-04T06:12:38;14.20;99.90
16732;DHT22;8484;50.904;9.192;2022-09-04T06:15:20;14.30;99.90
16732;DHT22;8484;50.904;9.192;2022-09-04T06:18:07;14.40;99.90
16732;DHT22;8484;50.904;9.192;2022-09-04T06:21:06;14.50;99.90
16732;DHT22;8484;50.904;9.192;2022-09-04T06:23:57;14.80;99.90
16732;DHT22;8484;50.904;9.192;2022-09-04T06:29:38;15.40;99.90
16732;DHT22;8484;50.904;9.192;2022-09-04T06:32:22;15.60;99.90
16732;DHT22;8484;50.904;9.192;2022-09-04T06:35:07;15.40;99.90
16732;DHT22;8484;50.904;9.192;2022-09-04T06:37:43;15.50;99.90
16732;DHT22;8484;50.904;9.192;2022-09-04T06:40:26;15.60;99.90
16732;DHT22;8484;50.904;9.192;2022-09-04T06:43:07;15.60;99.90
16732;DHT22;8484;50.904;9.192;2022-09-04T06:45:47;15.50;99.90
16732;DHT22;8484;50.904;9.192;2022-09-04T06:48:23;15.30;99.90
16732;DHT22;8484;50.904;9.192;2022-09-04T06:51:00;15.40;99.90
16732;DHT22;8484;50.904;9.192;2022-09-04T06:53:38;15.40;99.90
16732;DHT22;8484;50.904;9.192;2022-09-04T07:02:22;15.50;99.90
16732;DHT22;8484;50.904;9.192;2022-09-04T07:05:02;15.60;99.90
16732;DHT22;8484;50.904;9.192;2022-09-04T07:07:39;15.80;99.90
16732;DHT22;8484;50.904;9.192;2022-09-04T07:10:09;15.90;99.90
16732;DHT22;8484;50.904;9.192;2022-09-04T07:13:09;16.20;99.90
16732;DHT22;8484;50.904;9.192;2022-09-04T07:15:53;16.30;99.90
16732;DHT22;8484;50.904;9.192;2022-09-04T07:18:40;16.30;99.90
16732;DHT22;8484;50.904;9.192;2022-09-04T07:21:14;16.40;99.90
16732;DHT22;8484;50.904;9.192;2022-09-04T07:23:49;16.50;99.90
16732;DHT22;8484;50.904;9.192;2022-09-04T07:26:23;16.80;99.90
16732;DHT22;8484;50.904;9.192;2022-09-04T07:29:04;17.00;99.90
16732;DHT22;8484;50.904;9.192;2022-09-04T07:31:38;17.10;99.90
16732;DHT22;8484;50.904;9.192;2022-09-04T07:34:17;17.10;99.90
16732;DHT22;8484;50.904;9.192;2022-09-04T07:36:50;17.30;99.90
16732;DHT22;8484;50.904;9.192;2022-09-04T07:39:23;17.70;99.90
16732;DHT22;8484;50.904;9.192;2022-09-04T07:41:57;17.70;99.90
16732;DHT22;8484;50.904;9.192;2022-09-04T07:44:33;18.00;99.90
16732;DHT22;8484;50.904;9.192;2022-09-04T07:47:08;18.40;99.90
16732;DHT22;8484;50.904;9.192;2022-09-04T07:49:44;18.70;99.90
16732;DHT22;8484;50.904;9.192;2022-09-04T07:52:23;18.80;99.90
16732;DHT22;8484;50.904;9.192;2022-09-04T08:01:16;20.10;99.90
16732;DHT22;8484;50.904;9.192;2022-09-04T08:04:14;20.40;99.90
16732;DHT22;8484;50.904;9.192;2022-09-04T08:06:54;20.90;99.90
16732;DHT22;8484;50.904;9.192;2022-09-04T08:09:35;21.40;99.90
16732;DHT22;8484;50.904;9.192;2022-09-04T08:15:13;22.10;99.90
16732;DHT22;8484;50.904;9.192;2022-09-04T08:18:10;22.70;99.90
16732;DHT22;8484;50.904;9.192;2022-09-04T08:20:42;23.00;99.90
16732;DHT22;8484;50.904;9.192;2022-09-04T08:26:17;23.60;98.60
16732;DHT22;8484;50.904;9.192;2022-09-04T08:28:55;23.60;98.60
16732;DHT22;8484;50.904;9.192;2022-09-04T08:31:28;24.10;97.90
16732;DHT22;8484;50.904;9.192;2022-09-04T08:34:18;24.30;97.60
16732;DHT22;8484;50.904;9.192;2022-09-04T08:36:50;24.30;98.00
16732;DHT22;8484;50.904;9.192;2022-09-04T08:39:29;23.90;97.20
16732;DHT22;8484;50.904;9.192;2022-09-04T08:42:38;24.40;98.10
16732;DHT22;8484;50.904;9.192;2022-09-04T08:45:31;24.20;98.10
16732;DHT22;8484;50.904;9.192;2022-09-04T08:51:43;24.10;98.50
16732;DHT22;8484;50.904;9.192;2022-09-04T09:00:10;25.00;97.60
16732;DHT22;8484;50.904;9.192;2022-09-04T09:09:54;24.80;97.50
16732;DHT22;8484;50.904;9.192;2022-09-04T09:15:48;25.90;96.50
16732;DHT22;8484;50.904;9.192;2022-09-04T09:18:33;25.40;96.70
16732;DHT22;8484;50.904;9.192;2022-09-04T09:21:06;26.10;96.20
16732;DHT22;8484;50.904;9.192;2022-09-04T09:23:42;25.70;96.30
16732;DHT22;8484;50.904;9.192;2022-09-04T09:26:23;25.60;96.70
16732;DHT22;8484;50.904;9.192;2022-09-04T09:29:23;26.70;94.90
16732;DHT22;8484;50.904;9.192;2022-09-04T09:42:20;26.10;95.80
16732;DHT22;8484;50.904;9.192;2022-09-04T09:45:20;26.20;95.90
16732;DHT22;8484;50.904;9.192;2022-09-04T09:57:28;25.30;97.30
16732;DHT22;8484;50.904;9.192;2022-09-04T10:00:09;26.20;97.50
16732;DHT22;8484;50.904;9.192;2022-09-04T10:02:59;25.80;97.40
16732;DHT22;8484;50.904;9.192;2022-09-04T10:08:34;24.70;99.20
16732;DHT22;8484;50.904;9.192;2022-09-04T10:11:32;24.90;99.20
16732;DHT22;8484;50.904;9.192;2022-09-04T10:14:35;25.20;99.20
16732;DHT22;8484;50.904;9.192;2022-09-04T10:17:29;25.00;98.80
16732;DHT22;8484;50.904;9.192;2022-09-04T10:20:30;25.10;98.60
16732;DHT22;8484;50.904;9.192;2022-09-04T10:23:29;26.40;96.40
16732;DHT22;8484;50.904;9.192;2022-09-04T10:26:22;27.40;95.20
16732;DHT22;8484;50.904;9.192;2022-09-04T10:29:12;27.50;95.20
16732;DHT22;8484;50.904;9.192;2022-09-04T10:31:58;28.20;93.20
16732;DHT22;8484;50.904;9.192;2022-09-04T10:37:34;27.40;94.30
16732;DHT22;8484;50.904;9.192;2022-09-04T10:40:15;27.90;93.30
16732;DHT22;8484;50.904;9.192;2022-09-04T10:46:08;26.20;95.80
16732;DHT22;8484;50.904;9.192;2022-09-04T10:48:55;27.20;94.10
16732;DHT22;8484;50.904;9.192;2022-09-04T10:57:47;28.00;92.70
16732;DHT22;8484;50.904;9.192;2022-09-04T11:00:23;28.70;91.40
16732;DHT22;8484;50.904;9.192;2022-09-04T11:06:41;29.60;89.50
16732;DHT22;8484;50.904;9.192;2022-09-04T11:09:30;30.00;87.80
16732;DHT22;8484;50.904;9.192;2022-09-04T11:12:41;30.50;85.60
16732;DHT22;8484;50.904;9.192;2022-09-04T11:15:37;31.50;82.50
16732;DHT22;8484;50.904;9.192;2022-09-04T11:28:08;29.60;83.40
16732;DHT22;8484;50.904;9.192;2022-09-04T11:30:55;29.80;83.80
16732;DHT22;8484;50.904;9.192;2022-09-04T11:39:47;29.70;82.80
16732;DHT22;8484;50.904;9.192;2022-09-04T11:42:30;30.10;81.50
16732;DHT22;8484;50.904;9.192;2022-09-04T11:45:16;29.60;82.10
16732;DHT22;8484;50.904;9.192;2022-09-04T11:48:17;30.60;80.20
16732;DHT22;8484;50.904;9.192;2022-09-04T11:57:03;31.70;75.50
16732;DHT22;8484;50.904;9.192;2022-09-04T12:05:44;31.00;76.70
16732;DHT22;8484;50.904;9.192;2022-09-04T12:14:25;30.70;76.90
16732;DHT22;8484;50.904;9.192;2022-09-04T12:20:53;30.30;77.80
16732;DHT22;8484;50.904;9.192;2022-09-04T12:23:35;31.60;76.40
16732;DHT22;8484;50.904;9.192;2022-09-04T12:26:22;30.70;74.90
16732;DHT22;8484;50.904;9.192;2022-09-04T12:29:24;29.20;77.60
16732;DHT22;8484;50.904;9.192;2022-09-04T12:38:04;29.00;81.60
16732;DHT22;8484;50.904;9.192;2022-09-04T12:40:40;30.40;77.80
16732;DHT22;8484;50.904;9.192;2022-09-04T12:43:23;30.50;73.70
16732;DHT22;8484;50.904;9.192;2022-09-04T12:46:02;29.70;76.40
16732;DHT22;8484;50.904;9.192;2022-09-04T12:48:36;29.80;73.20
16732;DHT22;8484;50.904;9.192;2022-09-04T12:51:11;30.50;71.50
16732;DHT22;8484;50.904;9.192;2022-09-04T12:53:59;30.50;72.20
16732;DHT22;8484;50.904;9.192;2022-09-04T12:56:36;29.40;75.10
16732;DHT22;8484;50.904;9.192;2022-09-04T12:59:29;28.10;79.10
16732;DHT22;8484;50.904;9.192;2022-09-04T13:02:02;28.10;78.30
16732;DHT22;8484;50.904;9.192;2022-09-04T13:04:38;29.60;77.30
16732;DHT22;8484;50.904;9.192;2022-09-04T13:07:29;29.80;72.90
16732;DHT22;8484;50.904;9.192;2022-09-04T13:10:07;29.60;71.30
16732;DHT22;8484;50.904;9.192;2022-09-04T13:12:44;30.00;70.60
16732;DHT22;8484;50.904;9.192;2022-09-04T13:15:25;30.20;71.50
16732;DHT22;8484;50.904;9.192;2022-09-04T13:18:08;30.10;70.90
16732;DHT22;8484;50.904;9.192;2022-09-04T13:20:47;29.50;72.80
16732;DHT22;8484;50.904;9.192;2022-09-04T13:23:26;29.20;74.00
16732;DHT22;8484;50.904;9.192;2022-09-04T13:26:22;29.00;74.00
16732;DHT22;8484;50.904;9.192;2022-09-04T13:29:00;29.20;75.30
16732;DHT22;8484;50.904;9.192;2022-09-04T13:31:39;29.30;75.00
16732;DHT22;8484;50.904;9.192;2022-09-04T13:34:15;29.70;73.70
16732;DHT22;8484;50.904;9.192;2022-09-04T13:36:52;29.40;73.90
16732;DHT22;8484;50.904;9.192;2022-09-04T13:39:36;28.80;74.70
16732;DHT22;8484;50.904;9.192;2022-09-04T13:42:31;27.80;76.70
16732;DHT22;8484;50.904;9.192;2022-09-04T13:45:08;28.20;76.10
16732;DHT22;8484;50.904;9.192;2022-09-04T13:47:42;28.70;76.80
16732;DHT22;8484;50.904;9.192;2022-09-04T13:50:17;29.10;74.70
16732;DHT22;8484;50.904;9.192;2022-09-04T13:52:48;28.30;75.60
16732;DHT22;8484;50.904;9.192;2022-09-04T13:55:21;27.70;77.30
16732;DHT22;8484;50.904;9.192;2022-09-04T13:57:55;28.20;77.70
16732;DHT22;8484;50.904;9.192;2022-09-04T14:00:27;28.30;75.80
16732;DHT22;8484;50.904;9.192;2022-09-04T14:02:59;28.40;74.90
16732;DHT22;8484;50.904;9.192;2022-09-04T14:05:31;28.40;74.80
16732;DHT22;8484;50.904;9.192;2022-09-04T14:08:01;28.70;73.50
16732;DHT22;8484;50.904;9.192;2022-09-04T14:10:53;28.90;72.40
16732;DHT22;8484;50.904;9.192;2022-09-04T14:13:36;28.90;72.60
16732;DHT22;8484;50.904;9.192;2022-09-04T14:16:07;29.20;72.80
16732;DHT22;8484;50.904;9.192;2022-09-04T14:18:51;29.20;72.30
16732;DHT22;8484;50.904;9.192;2022-09-04T14:21:32;29.10;72.70
16732;DHT22;8484;50.904;9.192;2022-09-04T14:24:05;28.60;73.90
16732;DHT22;8484;50.904;9.192;2022-09-04T14:26:38;28.80;75.70
16732;DHT22;8484;50.904;9.192;2022-09-04T14:29:19;29.20;73.00
16732;DHT22;8484;50.904;9.192;2022-09-04T14:31:55;29.60;73.10
16732;DHT22;8484;50.904;9.192;2022-09-04T14:34:38;29.10;72.30
16732;DHT22;8484;50.904;9.192;2022-09-04T14:37:14;29.20;72.00
16732;DHT22;8484;50.904;9.192;2022-09-04T14:39:47;29.40;73.20
16732;DHT22;8484;50.904;9.192;2022-09-04T14:42:38;29.20;72.00
16732;DHT22;8484;50.904;9.192;2022-09-04T14:45:21;29.20;71.00
16732;DHT22;8484;50.904;9.192;2022-09-04T14:47:58;29.40;70.80
16732;DHT22;8484;50.904;9.192;2022-09-04T14:50:31;29.40;69.80
16732;DHT22;8484;50.904;9.192;2022-09-04T14:53:00;29.60;69.20
16732;DHT22;8484;50.904;9.192;2022-09-04T14:55:30;29.90;68.40
16732;DHT22;8484;50.904;9.192;2022-09-04T14:58:02;30.10;68.00
16732;DHT22;8484;50.904;9.192;2022-09-04T15:00:34;29.70;67.00
16732;DHT22;8484;50.904;9.192;2022-09-04T15:03:19;29.30;67.50
16732;DHT22;8484;50.904;9.192;2022-09-04T15:05:52;29.40;68.30
16732;DHT22;8484;50.904;9.192;2022-09-04T15:08:26;29.30;68.90
16732;DHT22;8484;50.904;9.192;2022-09-04T15:10:56;29.40;69.00
16732;DHT22;8484;50.904;9.192;2022-09-04T15:13:50;28.90;70.30
16732;DHT22;8484;50.904;9.192;2022-09-04T15:16:22;28.80;69.40
16732;DHT22;8484;50.904;9.192;2022-09-04T15:19:04;28.60;71.60
16732;DHT22;8484;50.904;9.192;2022-09-04T15:21:38;28.80;71.40
16732;DHT22;8484;50.904;9.192;2022-09-04T15:24:13;28.50;71.60
16732;DHT22;8484;50.904;9.192;2022-09-04T15:26:44;28.20;71.90
16732;DHT22;8484;50.904;9.192;2022-09-04T15:29:19;28.10;71.30
16732;DHT22;8484;50.904;9.192;2022-09-04T15:31:59;28.10;71.70
16732;DHT22;8484;50.904;9.192;2022-09-04T15:34:29;28.20;72.10
16732;DHT22;8484;50.904;9.192;2022-09-04T15:37:12;28.30;71.70
16732;DHT22;8484;50.904;9.192;2022-09-04T15:39:50;27.90;72.50
16732;DHT22;8484;50.904;9.192;2022-09-04T15:42:39;27.70;73.60
16732;DHT22;8484;50.904;9.192;2022-09-04T15:45:17;27.80;73.00
16732;DHT22;8484;50.904;9.192;2022-09-04T15:48:05;27.40;73.10
16732;DHT22;8484;50.904;9.192;2022-09-04T15:50:36;27.10;74.10
16732;DHT22;8484;50.904;9.192;2022-09-04T15:53:14;27.20;74.60
16732;DHT22;8484;50.904;9.192;2022-09-04T15:55:48;27.00;73.90
16732;DHT22;8484;50.904;9.192;2022-09-04T15:58:32;27.10;74.10
16732;DHT22;8484;50.904;9.192;2022-09-04T16:01:10;27.40;73.20
16732;DHT22;8484;50.904;9.192;2022-09-04T16:03:49;27.40;72.40
16732;DHT22;8484;50.904;9.192;2022-09-04T16:06:22;27.40;73.20
16732;DHT22;8484;50.904;9.192;2022-09-04T16:08:55;27.50;72.40
16732;DHT22;8484;50.904;9.192;2022-09-04T16:11:25;27.60;72.90
16732;DHT22;8484;50.904;9.192;2022-09-04T16:13:56;27.50;72.40
16732;DHT22;8484;50.904;9.192;2022-09-04T16:16:30;27.30;72.00
16732;DHT22;8484;50.904;9.192;2022-09-04T16:19:23;27.00;72.60
16732;DHT22;8484;50.904;9.192;2022-09-04T16:22:01;27.00;73.10
16732;DHT22;8484;50.904;9.192;2022-09-04T16:24:33;26.80;73.20
16732;DHT22;8484;50.904;9.192;2022-09-04T16:27:05;26.80;73.70
16732;DHT22;8484;50.904;9.192;2022-09-04T16:29:35;26.70;73.50
16732;DHT22;8484;50.904;9.192;2022-09-04T16:32:05;26.60;73.40
16732;DHT22;8484;50.904;9.192;2022-09-04T16:34:44;26.70;73.30
16732;DHT22;8484;50.904;9.192;2022-09-04T16:37:15;26.60;74.50
16732;DHT22;8484;50.904;9.192;2022-09-04T16:39:57;26.50;74.60
16732;DHT22;8484;50.904;9.192;2022-09-04T16:42:28;26.20;75.10
16732;DHT22;8484;50.904;9.192;2022-09-04T16:45:01;26.20;75.90
16732;DHT22;8484;50.904;9.192;2022-09-04T16:47:32;26.20;76.00
16732;DHT22;8484;50.904;9.192;2022-09-04T16:50:09;26.20;76.20
16732;DHT22;8484;50.904;9.192;2022-09-04T16:52:50;26.10;77.10
16732;DHT22;8484;50.904;9.192;2022-09-04T16:55:23;25.90;76.90
16732;DHT22;8484;50.904;9.192;2022-09-04T16:58:02;25.80;77.90
16732;DHT22;8484;50.904;9.192;2022-09-04T17:00:53;25.70;77.90
16732;DHT22;8484;50.904;9.192;2022-09-04T17:03:24;25.60;77.90
16732;DHT22;8484;50.904;9.192;2022-09-04T17:05:58;25.50;78.40
16732;DHT22;8484;50.904;9.192;2022-09-04T17:08:32;25.40;78.40
16732;DHT22;8484;50.904;9.192;2022-09-04T17:11:08;25.20;78.80
16732;DHT22;8484;50.904;9.192;2022-09-04T17:13:43;25.10;79.60
16732;DHT22;8484;50.904;9.192;2022-09-04T17:16:16;24.90;79.10
16732;DHT22;8484;50.904;9.192;2022-09-04T17:18:46;25.10;79.80
16732;DHT22;8484;50.904;9.192;2022-09-04T17:21:21;25.00;79.80
16732;DHT22;8484;50.904;9.192;2022-09-04T17:24:13;25.00;80.80
16732;DHT22;8484;50.904;9.192;2022-09-04T17:26:45;24.80;80.90
16732;DHT22;8484;50.904;9.192;2022-09-04T17:29:17;24.80;81.60
16732;DHT22;8484;50.904;9.192;2022-09-04T17:31:52;24.70;82.00
16732;DHT22;8484;50.904;9.192;2022-09-04T17:34:44;24.70;82.60
16732;DHT22;8484;50.904;9.192;2022-09-04T17:37:17;24.60;83.40
16732;DHT22;8484;50.904;9.192;2022-09-04T17:39:57;24.60;84.00
16732;DHT22;8484;50.904;9.192;2022-09-04T17:42:27;24.30;84.80
16732;DHT22;8484;50.904;9.192;2022-09-04T17:45:06;24.30;85.70
16732;DHT22;8484;50.904;9.192;2022-09-04T17:47:36;24.20;86.10
16732;DHT22;8484;50.904;9.192;2022-09-04T17:50:11;24.20;86.40
16732;DHT22;8484;50.904;9.192;2022-09-04T17:52:56;24.30;86.20
16732;DHT22;8484;50.904;9.192;2022-09-04T17:55:24;24.20;86.40
16732;DHT22;8484;50.904;9.192;2022-09-04T17:57:57;24.10;86.70
16732;DHT22;8484;50.904;9.192;2022-09-04T18:00:29;24.10;86.90
16732;DHT22;8484;50.904;9.192;2022-09-04T18:03:01;24.10;86.90
16732;DHT22;8484;50.904;9.192;2022-09-04T18:05:35;24.00;86.80
16732;DHT22;8484;50.904;9.192;2022-09-04T18:08:07;24.00;87.20
16732;DHT22;8484;50.904;9.192;2022-09-04T18:10:48;23.90;87.50
16732;DHT22;8484;50.904;9.192;2022-09-04T18:13:52;23.80;87.90
16732;DHT22;8484;50.904;9.192;2022-09-04T18:16:45;23.70;88.40
16732;DHT22;8484;50.904;9.192;2022-09-04T18:19:20;23.50;89.30
16732;DHT22;8484;50.904;9.192;2022-09-04T18:21:51;23.40;89.90
16732;DHT22;8484;50.904;9.192;2022-09-04T18:24:24;23.30;90.00
16732;DHT22;8484;50.904;9.192;2022-09-04T18:26:57;23.30;90.10
16732;DHT22;8484;50.904;9.192;2022-09-04T18:32:20;23.20;90.30
16732;DHT22;8484;50.904;9.192;2022-09-04T18:34:53;23.10;90.40
16732;DHT22;8484;50.904;9.192;2022-09-04T18:37:23;23.10;90.40
16732;DHT22;8484;50.904;9.192;2022-09-04T18:40:05;23.00;90.60
16732;DHT22;8484;50.904;9.192;2022-09-04T18:42:43;23.00;90.60
16732;DHT22;8484;50.904;9.192;2022-09-04T18:45:17;22.90;90.70
16732;DHT22;8484;50.904;9.192;2022-09-04T18:47:48;22.90;90.90
16732;DHT22;8484;50.904;9.192;2022-09-04T18:50:24;22.40;91.10
16732;DHT22;8484;50.904;9.192;2022-09-04T18:52:58;22.30;91.50
16732;DHT22;8484;50.904;9.192;2022-09-04T18:55:30;21.60;92.20
16732;DHT22;8484;50.904;9.192;2022-09-04T18:58:24;21.20;92.80
16732;DHT22;8484;50.904;9.192;2022-09-04T19:00:57;21.10;93.30
16732;DHT22;8484;50.904;9.192;2022-09-04T19:03:27;21.20;93.70
16732;DHT22;8484;50.904;9.192;2022-09-04T19:06:00;21.00;93.70
16732;DHT22;8484;50.904;9.192;2022-09-04T19:08:32;21.10;93.80
16732;DHT22;8484;50.904;9.192;2022-09-04T19:11:04;21.00;94.10
16732;DHT22;8484;50.904;9.192;2022-09-04T19:13:43;21.00;94.20
16732;DHT22;8484;50.904;9.192;2022-09-04T19:16:16;21.10;94.50